createdAt,value
2023-04-15T00:00:59.953Z,44.03
2023-04-15T00:03:30.020Z,45.93
2023-04-15T00:06:03.755Z,41.33
2023-04-15T00:08:33.293Z,43.00
2023-04-15T00:11:05.921Z,40.13
2023-04-15T00:13:35.151Z,39.30
2023-04-15T00:16:04.053Z,40.63
2023-04-15T00:18:32.755Z,40.83
2023-04-15T00:21:02.979Z,40.53
2023-04-15T00:23:32.264Z,39.87
2023-04-15T00:26:00.688Z,40.43
2023-04-15T00:28:29.613Z,42.37
2023-04-15T00:30:59.521Z,39.73
2023-04-15T00:33:28.933Z,41.83
2023-04-15T00:35:57.700Z,44.13
2023-04-15T00:38:28.144Z,41.93
2023-04-15T00:40:57.397Z,40.93
2023-04-15T00:43:29.830Z,42.43
2023-04-15T00:45:59.641Z,42.87
2023-04-15T00:48:28.932Z,42.80
2023-04-15T00:50:57.598Z,41.17
2023-04-15T00:53:31.344Z,42.00
2023-04-15T00:55:59.933Z,43.87
2023-04-15T00:58:29.190Z,42.77
2023-04-15T01:00:59.023Z,42.77
2023-04-15T01:03:27.919Z,45.40
2023-04-15T01:05:58.385Z,43.33
2023-04-15T01:08:29.979Z,44.97
2023-04-15T01:11:00.445Z,40.03
2023-04-15T01:13:31.131Z,40.53
2023-04-15T01:16:06.747Z,40.87
2023-04-15T01:18:36.312Z,42.60
2023-04-15T01:21:05.442Z,43.93
2023-04-15T01:23:38.691Z,41.17
2023-04-15T01:26:09.545Z,41.97
2023-04-15T01:28:38.655Z,43.73
2023-04-15T01:31:08.790Z,42.20
2023-04-15T01:33:39.406Z,42.80
2023-04-15T01:36:10.033Z,42.93
2023-04-15T01:38:39.218Z,42.43
2023-04-15T01:41:09.152Z,39.73
2023-04-15T01:43:43.857Z,42.73
2023-04-15T01:46:12.867Z,39.33
2023-04-15T01:48:41.324Z,39.83
2023-04-15T01:51:09.825Z,39.37
2023-04-15T01:53:38.392Z,38.67
2023-04-15T01:56:09.245Z,40.73
2023-04-15T01:58:37.797Z,43.77
2023-04-15T02:01:07.109Z,42.67
2023-04-15T02:03:36.116Z,42.70
2023-04-15T02:06:06.249Z,44.33
2023-04-15T02:08:34.810Z,44.97
2023-04-15T02:11:03.390Z,44.03
2023-04-15T02:13:35.028Z,44.40
2023-04-15T02:16:04.298Z,45.30
2023-04-15T02:18:32.912Z,44.27
2023-04-15T02:21:01.533Z,47.93
2023-04-15T02:23:30.041Z,45.20
2023-04-15T02:25:59.868Z,46.07
2023-04-15T02:28:28.633Z,46.10
2023-04-15T02:30:59.858Z,46.73
2023-04-15T02:33:28.423Z,46.60
2023-04-15T02:35:56.948Z,46.13
2023-04-15T02:38:25.589Z,45.23
2023-04-15T02:40:54.378Z,45.97
2023-04-15T02:43:22.990Z,46.33
2023-04-15T02:45:53.342Z,46.33
2023-04-15T02:48:23.899Z,46.30
2023-04-15T02:50:52.311Z,44.77
2023-04-15T02:53:21.024Z,48.27
2023-04-15T02:55:49.622Z,44.93
2023-04-15T02:58:18.174Z,44.83
2023-04-15T03:00:46.670Z,46.60
2023-04-15T03:03:15.640Z,48.00
2023-04-15T03:05:46.122Z,45.70
2023-04-15T03:08:15.801Z,46.30
2023-04-15T03:10:44.376Z,45.00
2023-04-15T03:13:12.864Z,48.00
2023-04-15T03:15:42.116Z,47.17
2023-04-15T03:18:11.442Z,46.70
2023-04-15T03:20:39.930Z,44.73
2023-04-15T03:23:10.154Z,46.90
2023-04-15T03:25:38.725Z,47.60
2023-04-15T03:28:08.965Z,48.83
2023-04-15T03:30:37.504Z,48.57
2023-04-15T03:33:06.194Z,50.47
2023-04-15T03:35:34.799Z,45.93
2023-04-15T03:38:03.572Z,44.67
2023-04-15T03:40:33.523Z,45.90
2023-04-15T03:43:02.166Z,44.87
2023-04-15T03:45:31.669Z,45.37
2023-04-15T03:48:11.417Z,46.90
2023-04-15T03:50:45.590Z,44.57
2023-04-15T03:53:14.258Z,42.87
2023-04-15T03:55:44.876Z,44.83
2023-04-15T03:58:13.474Z,44.30
2023-04-15T04:00:42.593Z,46.07
2023-04-15T04:03:12.158Z,44.17
2023-04-15T04:05:41.571Z,45.13
2023-04-15T04:08:10.238Z,44.57
2023-04-15T04:10:39.019Z,47.13
2023-04-15T04:13:09.410Z,44.93
2023-04-15T04:15:38.003Z,44.07
2023-04-15T04:18:06.746Z,45.67
2023-04-15T04:20:35.343Z,45.27
2023-04-15T04:23:04.001Z,42.67
2023-04-15T04:25:33.232Z,43.73
2023-04-15T04:28:01.715Z,41.43
2023-04-15T04:30:31.682Z,41.00
2023-04-15T04:33:00.476Z,42.63
2023-04-15T04:35:29.777Z,43.20
2023-04-15T04:37:58.617Z,41.27
2023-04-15T04:40:27.707Z,41.40
2023-04-15T04:42:56.840Z,39.30
2023-04-15T04:45:25.376Z,39.50
2023-04-15T04:47:55.697Z,39.43
2023-04-15T04:50:24.478Z,41.07
2023-04-15T04:52:53.056Z,39.87
2023-04-15T04:55:21.745Z,39.50
2023-04-15T04:57:50.700Z,38.50
2023-04-15T05:00:22.865Z,38.43
2023-04-15T05:02:51.765Z,36.23
2023-04-15T05:05:22.067Z,35.23
2023-04-15T05:07:50.695Z,34.37
2023-04-15T05:10:19.693Z,35.77
2023-04-15T05:12:48.396Z,32.97
2023-04-15T05:15:17.147Z,29.40
2023-04-15T05:17:45.833Z,26.40
2023-04-15T05:20:14.926Z,25.10
2023-04-15T05:22:44.844Z,23.20
2023-04-15T05:25:13.773Z,21.10
2023-04-15T05:27:42.344Z,19.87
2023-04-15T05:30:13.258Z,20.00
2023-04-15T05:32:42.147Z,18.90
2023-04-15T05:35:10.907Z,18.20
2023-04-15T05:37:39.535Z,18.20
2023-04-15T05:40:10.682Z,18.77
2023-04-15T05:42:39.246Z,17.63
2023-04-15T05:45:09.401Z,17.53
2023-04-15T05:47:38.489Z,17.10
2023-04-15T05:50:08.235Z,17.87
2023-04-15T05:52:37.064Z,17.80
2023-04-15T05:55:06.321Z,18.97
2023-04-15T05:57:36.629Z,17.43
2023-04-15T06:00:06.348Z,17.60
2023-04-15T06:02:44.053Z,16.57
2023-04-15T06:05:12.802Z,15.40
2023-04-15T06:07:41.698Z,15.27
2023-04-15T06:10:11.234Z,16.80
2023-04-15T06:12:41.145Z,16.33
2023-04-15T06:15:11.331Z,16.37
2023-04-15T06:17:39.915Z,17.07
2023-04-15T06:20:09.340Z,16.17
2023-04-15T06:22:39.160Z,15.83
2023-04-15T06:25:09.404Z,16.80
2023-04-15T06:27:37.866Z,15.83
2023-04-15T06:30:09.072Z,14.13
2023-04-15T06:32:37.740Z,14.80
2023-04-15T06:35:06.753Z,14.03
2023-04-15T06:37:35.382Z,13.67
2023-04-15T06:40:05.109Z,12.17
2023-04-15T06:42:34.137Z,11.93
2023-04-15T06:45:03.059Z,11.80
2023-04-15T06:47:33.012Z,11.40
2023-04-15T06:50:01.938Z,11.67
2023-04-15T06:52:30.604Z,10.63
2023-04-15T06:54:59.674Z,10.53
2023-04-15T06:57:28.866Z,9.77
2023-04-15T06:59:57.735Z,9.20
2023-04-15T07:02:26.366Z,10.13
2023-04-15T07:04:57.053Z,9.80
2023-04-15T07:07:25.640Z,9.80
2023-04-15T07:09:54.143Z,9.57
2023-04-15T07:12:22.672Z,9.77
2023-04-15T07:14:51.259Z,9.53
2023-04-15T07:17:19.762Z,9.30
2023-04-15T07:19:48.314Z,9.23
2023-04-15T07:22:18.154Z,9.23
2023-04-15T07:24:47.235Z,9.03
2023-04-15T07:27:15.819Z,9.73
2023-04-15T07:29:44.279Z,9.07
2023-04-15T07:32:12.766Z,8.87
2023-04-15T07:34:41.586Z,8.90
2023-04-15T07:37:10.071Z,11.50
2023-04-15T07:39:39.840Z,10.27
2023-04-15T07:42:08.704Z,8.37
2023-04-15T07:44:37.334Z,9.37
2023-04-15T07:47:06.089Z,9.30
2023-04-15T07:49:34.645Z,8.67
2023-04-15T07:52:03.148Z,8.90
2023-04-15T07:54:32.329Z,8.57
2023-04-15T07:57:03.246Z,8.77
2023-04-15T07:59:33.523Z,8.83
2023-04-15T08:02:02.557Z,8.87
2023-04-15T08:04:31.331Z,8.93
2023-04-15T08:06:59.896Z,9.90
2023-04-15T08:09:28.397Z,9.27
2023-04-15T08:11:57.733Z,9.47
2023-04-15T08:14:27.863Z,9.80
2023-04-15T08:16:56.449Z,9.10
2023-04-15T08:19:24.928Z,9.47
2023-04-15T08:21:53.450Z,9.67
2023-04-15T08:24:21.951Z,9.37
2023-04-15T08:26:50.487Z,8.73
2023-04-15T08:29:19.361Z,9.67
2023-04-15T08:31:49.274Z,10.80
2023-04-15T08:34:18.214Z,10.43
2023-04-15T08:36:46.736Z,10.37
2023-04-15T08:39:15.304Z,10.30
2023-04-15T08:41:48.796Z,10.20
2023-04-15T08:44:17.438Z,11.40
2023-04-15T08:46:46.177Z,10.40
2023-04-15T08:49:16.909Z,10.77
2023-04-15T08:51:45.328Z,10.57
2023-04-15T08:54:13.972Z,10.60
2023-04-15T08:56:42.690Z,10.13
2023-04-15T08:59:11.531Z,10.20
2023-04-15T09:01:40.169Z,9.97
2023-04-15T09:04:09.025Z,10.57
2023-04-15T09:06:41.481Z,11.20
2023-04-15T09:09:10.000Z,10.17
2023-04-15T09:11:38.436Z,9.90
2023-04-15T09:14:07.022Z,10.40
2023-04-15T09:17:00.174Z,10.23
2023-04-15T09:19:28.804Z,9.87
2023-04-15T09:22:00.519Z,10.13
2023-04-15T09:24:38.476Z,9.33
2023-04-15T09:27:07.447Z,10.03
2023-04-15T09:29:37.321Z,9.63
2023-04-15T09:32:14.718Z,9.90
2023-04-15T09:34:44.563Z,9.77
2023-04-15T09:37:31.789Z,10.00
2023-04-15T09:40:01.098Z,10.60
2023-04-15T09:42:29.834Z,10.93
2023-04-15T09:45:09.807Z,10.43
2023-04-15T09:47:38.310Z,11.03
2023-04-15T09:50:07.727Z,11.00
2023-04-15T09:52:44.238Z,11.30
2023-04-15T09:55:13.243Z,11.07
2023-04-15T09:57:42.563Z,13.10
2023-04-15T10:00:12.277Z,13.90
2023-04-15T10:02:43.173Z,14.07
2023-04-15T10:05:13.322Z,13.67
2023-04-15T10:07:44.114Z,14.23
2023-04-15T10:10:13.510Z,15.17
2023-04-15T10:12:42.997Z,13.77
2023-04-15T10:15:17.931Z,14.17
2023-04-15T10:17:46.883Z,14.23
2023-04-15T10:20:16.575Z,12.67
2023-04-15T10:22:47.130Z,13.43
2023-04-15T10:25:16.962Z,12.97
2023-04-15T10:27:46.545Z,13.03
2023-04-15T10:30:15.434Z,15.37
2023-04-15T10:32:44.328Z,14.53
2023-04-15T10:35:14.839Z,14.57
2023-04-15T10:37:57.471Z,14.27
2023-04-15T10:40:28.149Z,14.47
2023-04-15T10:42:57.414Z,13.77
2023-04-15T10:45:28.428Z,14.77
2023-04-15T10:47:58.178Z,13.90
2023-04-15T10:50:30.505Z,15.03
2023-04-15T10:53:00.755Z,13.63
2023-04-15T10:55:33.725Z,14.17
2023-04-15T10:58:03.101Z,14.93
2023-04-15T11:00:32.668Z,15.53
2023-04-15T11:03:08.420Z,13.73
2023-04-15T11:06:01.786Z,15.00
2023-04-15T11:08:59.516Z,15.10
2023-04-15T11:12:06.136Z,14.07
2023-04-15T11:14:35.921Z,13.53
2023-04-15T11:17:05.111Z,14.13
2023-04-15T11:19:40.171Z,12.93
2023-04-15T11:22:09.844Z,14.07
2023-04-15T11:24:48.998Z,13.60
2023-04-15T11:27:23.433Z,14.33
2023-04-15T11:29:52.441Z,13.37
2023-04-15T11:32:21.009Z,13.93
2023-04-15T11:34:49.391Z,13.93
2023-04-15T11:37:17.901Z,14.90
2023-04-15T11:39:49.416Z,15.50
2023-04-15T11:42:18.945Z,15.73
2023-04-15T11:44:47.410Z,15.87
2023-04-15T11:47:24.711Z,17.73
2023-04-15T11:49:53.356Z,15.73
2023-04-15T11:52:21.886Z,17.57
2023-04-15T11:54:51.966Z,15.80
2023-04-15T11:57:20.651Z,16.50
2023-04-15T11:59:49.105Z,16.80
2023-04-15T12:02:18.184Z,16.83
2023-04-15T12:04:47.231Z,15.20
2023-04-15T12:07:15.681Z,14.07
2023-04-15T12:09:44.160Z,14.47
2023-04-15T12:12:14.180Z,12.63
2023-04-15T12:14:42.880Z,12.27
2023-04-15T12:17:13.270Z,12.37
2023-04-15T12:19:43.068Z,11.17
2023-04-15T12:22:13.273Z,12.00
2023-04-15T12:24:44.000Z,10.63
2023-04-15T12:27:14.508Z,11.67
2023-04-15T12:29:44.248Z,12.30
2023-04-15T12:32:13.838Z,11.97
2023-04-15T12:34:45.096Z,12.37
2023-04-15T12:37:14.464Z,13.37
2023-04-15T12:39:44.901Z,13.17
2023-04-15T12:42:15.753Z,13.37
2023-04-15T12:44:44.263Z,13.53
2023-04-15T12:47:13.540Z,11.73
2023-04-15T12:49:42.343Z,13.10
2023-04-15T12:52:11.052Z,14.37
2023-04-15T12:54:40.528Z,14.50
2023-04-15T12:57:09.103Z,14.20
2023-04-15T12:59:39.026Z,14.57
2023-04-15T13:02:08.178Z,15.63
2023-04-15T13:04:36.987Z,15.30
2023-04-15T13:07:05.684Z,14.30
2023-04-15T13:09:34.151Z,15.17
2023-04-15T13:12:04.718Z,15.07
2023-04-15T13:14:33.308Z,14.30
2023-04-15T13:17:05.066Z,13.93
2023-04-15T13:19:34.009Z,14.23
2023-04-15T13:22:02.517Z,16.20
2023-04-15T13:24:31.843Z,14.43
2023-04-15T13:27:00.379Z,15.17
2023-04-15T13:29:28.895Z,14.97
2023-04-15T13:31:57.761Z,14.63
2023-04-15T13:34:27.591Z,14.20
2023-04-15T13:36:56.375Z,15.07
2023-04-15T13:39:25.636Z,15.20
2023-04-15T13:41:54.178Z,14.23
2023-04-15T13:44:22.767Z,14.40
2023-04-15T13:46:52.173Z,15.93
2023-04-15T13:49:20.702Z,15.57
2023-04-15T13:51:50.947Z,15.20
2023-04-15T13:54:19.825Z,15.97
2023-04-15T13:56:48.425Z,15.87
2023-04-15T13:59:17.025Z,15.80
2023-04-15T14:01:45.721Z,16.50
2023-04-15T14:04:14.920Z,16.40
2023-04-15T14:06:43.549Z,16.90
2023-04-15T14:09:16.673Z,16.97
2023-04-15T14:11:48.116Z,16.73
2023-04-15T14:14:16.588Z,18.67
2023-04-15T14:16:45.108Z,17.60
2023-04-15T14:19:13.698Z,19.27
2023-04-15T14:21:42.147Z,18.80
2023-04-15T14:24:10.739Z,18.30
2023-04-15T14:26:40.807Z,17.90
2023-04-15T14:29:09.582Z,19.27
2023-04-15T14:31:38.150Z,19.33
2023-04-15T14:34:09.813Z,18.40
2023-04-15T14:36:38.467Z,18.70
2023-04-15T14:39:07.363Z,17.30
2023-04-15T14:41:35.972Z,19.17
2023-04-15T14:44:06.233Z,18.50
2023-04-15T14:46:35.179Z,18.57
2023-04-15T14:49:04.512Z,19.30
2023-04-15T14:51:33.459Z,18.43
2023-04-15T14:54:02.761Z,18.70
2023-04-15T14:56:32.342Z,17.97
2023-04-15T14:59:01.103Z,18.90
2023-04-15T15:01:31.281Z,19.17
2023-04-15T15:04:01.041Z,17.90
2023-04-15T15:06:29.883Z,18.03
2023-04-15T15:08:58.367Z,17.63
2023-04-15T15:11:27.223Z,18.33
2023-04-15T15:13:56.738Z,17.83
2023-04-15T15:16:25.742Z,18.20
2023-04-15T15:18:56.071Z,17.20
2023-04-15T15:21:24.857Z,16.67
2023-04-15T15:23:53.439Z,15.73
2023-04-15T15:26:22.263Z,17.57
2023-04-15T15:28:51.531Z,16.53
2023-04-15T15:31:20.159Z,17.57
2023-04-15T15:33:48.840Z,16.80
2023-04-15T15:36:19.361Z,15.80
2023-04-15T15:38:47.913Z,15.17
2023-04-15T15:41:16.815Z,16.27
2023-04-15T15:43:45.390Z,17.20
2023-04-15T15:46:14.037Z,15.87
2023-04-15T15:48:43.082Z,15.83
2023-04-15T15:51:12.701Z,16.30
2023-04-15T15:53:44.735Z,16.13
2023-04-15T15:56:13.420Z,15.77
2023-04-15T15:58:43.877Z,16.50
2023-04-15T16:01:12.882Z,15.70
2023-04-15T16:03:41.678Z,14.13
2023-04-15T16:06:10.769Z,14.67
2023-04-15T16:08:39.536Z,14.10
2023-04-15T16:11:09.545Z,14.63
2023-04-15T16:13:38.496Z,14.40
2023-04-15T16:16:07.551Z,14.40
2023-04-15T16:18:36.430Z,13.90
2023-04-15T16:21:05.389Z,14.20
2023-04-15T16:23:34.037Z,14.57
2023-04-15T16:26:03.397Z,14.67
2023-04-15T16:28:33.464Z,15.50
2023-04-15T16:31:02.698Z,14.33
2023-04-15T16:33:31.644Z,14.37
2023-04-15T16:36:00.327Z,14.00
2023-04-15T16:38:29.292Z,14.67
2023-04-15T16:41:00.772Z,14.20
2023-04-15T16:43:30.292Z,14.80
2023-04-15T16:46:00.404Z,14.97
2023-04-15T16:48:29.179Z,13.70
2023-04-15T16:50:58.632Z,14.47
2023-04-15T16:53:27.273Z,13.50
2023-04-15T16:55:56.033Z,14.97
2023-04-15T16:58:25.031Z,13.80
2023-04-15T17:00:54.063Z,14.43
2023-04-15T17:03:24.239Z,14.93
2023-04-15T17:05:53.418Z,15.43
2023-04-15T17:08:22.045Z,14.40
2023-04-15T17:10:51.873Z,15.10
2023-04-15T17:13:20.695Z,14.23
2023-04-15T17:15:49.405Z,14.27
2023-04-15T17:18:18.402Z,14.33
2023-04-15T17:20:48.694Z,15.57
2023-04-15T17:23:17.760Z,14.33
2023-04-15T17:25:47.676Z,14.70
2023-04-15T17:28:16.544Z,14.43
2023-04-15T17:30:46.147Z,15.37
2023-04-15T17:33:57.516Z,13.97
2023-04-15T17:36:05.676Z,15.70
2023-04-15T17:38:34.731Z,15.03
2023-04-15T17:41:03.511Z,14.83
2023-04-15T17:43:33.719Z,15.40
2023-04-15T17:46:02.877Z,15.00
2023-04-15T17:48:31.622Z,15.10
2023-04-15T17:51:00.894Z,14.23
2023-04-15T17:53:31.067Z,13.60
2023-04-15T17:55:59.905Z,15.00
2023-04-15T17:58:28.621Z,18.10
2023-04-15T18:00:57.471Z,14.93
2023-04-15T18:03:26.360Z,15.77
2023-04-15T18:06:01.988Z,15.63
2023-04-15T18:08:32.749Z,15.60
2023-04-15T18:11:01.300Z,16.30
2023-04-15T18:13:29.918Z,17.10
2023-04-15T18:15:58.596Z,17.77
2023-04-15T18:18:27.444Z,17.10
2023-04-15T18:20:56.077Z,17.63
2023-04-15T18:23:24.771Z,17.23
2023-04-15T18:25:55.077Z,16.93
2023-04-15T18:28:23.664Z,17.27
2023-04-15T18:30:52.488Z,17.53
2023-04-15T18:33:21.522Z,18.40
2023-04-15T18:35:50.265Z,17.83
2023-04-15T18:38:19.196Z,19.07
2023-04-15T18:40:48.142Z,17.13
2023-04-15T18:43:18.570Z,18.27
2023-04-15T18:45:47.297Z,17.40
2023-04-15T18:48:17.592Z,17.57
2023-04-15T18:50:46.576Z,18.70
2023-04-15T18:53:15.388Z,18.03
2023-04-15T18:55:44.037Z,19.13
2023-04-15T18:58:12.852Z,19.63
2023-04-15T19:00:44.002Z,18.37
2023-04-15T19:03:13.401Z,21.07
2023-04-15T19:05:42.929Z,19.10
2023-04-15T19:08:12.433Z,19.73
2023-04-15T19:10:41.296Z,19.47
2023-04-15T19:13:10.289Z,19.93
2023-04-15T19:15:39.088Z,18.13
2023-04-15T19:18:10.676Z,18.87
2023-04-15T19:20:40.297Z,20.33
2023-04-15T19:23:09.208Z,18.83
2023-04-15T19:25:38.944Z,19.00
2023-04-15T19:28:07.622Z,17.57
2023-04-15T19:30:36.628Z,19.80
2023-04-15T19:33:05.485Z,18.43
2023-04-15T19:35:35.629Z,18.93
2023-04-15T19:38:04.887Z,20.00
2023-04-15T19:40:33.387Z,19.33
2023-04-15T19:43:01.891Z,19.87
2023-04-15T19:45:30.673Z,19.07
2023-04-15T19:47:59.397Z,18.93
2023-04-15T19:50:28.419Z,19.67
2023-04-15T19:52:58.782Z,18.77
2023-04-15T19:55:27.594Z,20.10
2023-04-15T19:57:56.140Z,17.90
2023-04-15T20:00:25.354Z,18.87
2023-04-15T20:02:54.243Z,19.77
2023-04-15T20:05:23.537Z,17.40
2023-04-15T20:07:53.288Z,18.97
2023-04-15T20:10:23.777Z,19.13
2023-04-15T20:12:53.323Z,18.47
2023-04-15T20:15:23.488Z,19.27
2023-04-15T20:17:52.493Z,19.00
2023-04-15T20:20:21.331Z,20.27
2023-04-15T20:22:49.922Z,18.93
2023-04-15T20:25:18.683Z,20.07
2023-04-15T20:27:48.776Z,20.33
2023-04-15T20:30:17.583Z,19.63
2023-04-15T20:32:46.367Z,19.83
2023-04-15T20:35:15.557Z,18.77
2023-04-15T20:37:45.606Z,22.07
2023-04-15T20:40:15.946Z,21.67
2023-04-15T20:42:44.453Z,21.20
2023-04-15T20:45:14.614Z,20.60
2023-04-15T20:47:43.409Z,21.40
2023-04-15T20:50:12.923Z,21.03
2023-04-15T20:52:41.691Z,20.10
2023-04-15T20:55:11.037Z,20.27
2023-04-15T20:57:39.702Z,22.77
2023-04-15T21:00:10.982Z,22.80
2023-04-15T21:02:41.030Z,21.50
2023-04-15T21:05:10.317Z,20.37
2023-04-15T21:07:39.026Z,20.00
2023-04-15T21:10:08.716Z,19.87
2023-04-15T21:12:37.551Z,20.47
2023-04-15T21:15:07.212Z,20.87
2023-04-15T21:17:36.302Z,20.53
2023-04-15T21:20:07.469Z,20.70
2023-04-15T21:22:36.278Z,19.50
2023-04-15T21:25:05.162Z,20.80
2023-04-15T21:27:34.081Z,22.03
2023-04-15T21:30:02.750Z,22.13
2023-04-15T21:32:31.791Z,21.80
2023-04-15T21:35:00.526Z,20.67
2023-04-15T21:37:30.488Z,22.20
2023-04-15T21:39:59.709Z,21.90
2023-04-15T21:42:28.458Z,21.23
2023-04-15T21:44:56.999Z,23.50
2023-04-15T21:47:25.918Z,22.60
2023-04-15T21:49:54.885Z,22.33
2023-04-15T21:52:23.599Z,21.77
2023-04-15T21:54:53.691Z,21.20
2023-04-15T21:57:22.564Z,23.30
2023-04-15T21:59:51.286Z,22.27
2023-04-15T22:02:20.075Z,21.93
2023-04-15T22:04:48.948Z,22.70
2023-04-15T22:07:17.545Z,22.20
2023-04-15T22:09:46.857Z,22.00
2023-04-15T22:12:17.140Z,22.97
2023-04-15T22:14:46.362Z,23.63
2023-04-15T22:17:14.866Z,23.17
2023-04-15T22:19:45.255Z,23.07
2023-04-15T22:22:14.011Z,23.50
2023-04-15T22:24:42.730Z,21.97
2023-04-15T22:27:11.644Z,22.00
2023-04-15T22:29:41.841Z,19.27
2023-04-15T22:32:10.553Z,22.33
2023-04-15T22:34:39.415Z,20.80
2023-04-15T22:37:08.151Z,20.73
2023-04-15T22:39:36.978Z,22.60
2023-04-15T22:42:06.107Z,21.50
2023-04-15T22:44:34.768Z,20.00
2023-04-15T22:47:04.994Z,20.53
2023-04-15T22:49:35.045Z,21.70
2023-04-15T22:52:03.822Z,20.57
2023-04-15T22:54:32.491Z,18.60
2023-04-15T22:57:01.322Z,20.43
2023-04-15T22:59:30.173Z,19.30
2023-04-15T23:01:59.532Z,19.47
2023-04-15T23:04:29.914Z,20.27
2023-04-15T23:06:58.974Z,19.47
2023-04-15T23:09:27.675Z,19.27
2023-04-15T23:11:57.222Z,19.90
2023-04-15T23:14:28.195Z,19.03
2023-04-15T23:16:58.021Z,19.47
2023-04-15T23:19:26.746Z,20.13
2023-04-15T23:21:56.822Z,20.80
2023-04-15T23:24:25.463Z,17.93
2023-04-15T23:26:54.364Z,18.53
2023-04-15T23:29:22.994Z,18.80
2023-04-15T23:31:51.962Z,19.37
2023-04-15T23:34:20.714Z,18.97
2023-04-15T23:36:49.405Z,18.83
2023-04-15T23:39:19.322Z,19.53
2023-04-15T23:41:48.059Z,18.77
2023-04-15T23:44:16.904Z,18.73
2023-04-15T23:46:45.888Z,19.47
2023-04-15T23:49:17.398Z,18.87
2023-04-15T23:51:47.683Z,17.97
2023-04-15T23:54:18.334Z,17.53
2023-04-15T23:56:48.225Z,17.97
2023-04-15T23:59:16.939Z,17.87
